Time;durP1;ratioP1;P1;durP2;ratioP2;P2;SDS_P1;SDS_P2;PMS_P1;PMS_P2;Temp;Humidity;BMP_temperature;BMP_pressure;BME280_temperature;BME280_humidity;BME280_pressure;Samples;Min_cycle;Max_cycle;Signal;HPM_P1;HPM_P2
2023/11/04 00:02:22;;;;;;;4.78;3.35;;;;;;;;;;5044829;28;20041;-57
2023/11/04 00:04:47;;;;;;;5.10;3.35;;;;;;;;;;5045094;28;20095;-57
2023/11/04 00:07:12;;;;;;;5.55;3.45;;;;;;;;;;5043401;28;20333;-59
2023/11/04 00:09:38;;;;;;;5.50;3.30;;;;;;;;;;5026120;28;20114;-58
2023/11/04 00:12:03;;;;;;;6.22;3.63;;;;;;;;;;5045012;28;20041;-56
2023/11/04 00:14:29;;;;;;;4.68;3.22;;;;;;;;;;5026964;28;20353;-57
2023/11/04 00:16:54;;;;;;;4.50;3.45;;;;;;;;;;5045038;28;20041;-56
2023/11/04 00:19:19;;;;;;;5.32;3.50;;;;;;;;;;5046601;28;20056;-65
2023/11/04 00:21:44;;;;;;;5.10;3.40;;;;;;;;;;5048066;28;20170;-57
2023/11/04 00:24:10;;;;;;;4.78;3.30;;;;;;;;;;5028642;28;20160;-57
2023/11/04 00:26:35;;;;;;;5.55;3.28;;;;;;;;;;5044627;28;20054;-57
2023/11/04 00:29:00;;;;;;;4.57;3.15;;;;;;;;;;5044416;28;20064;-56
2023/11/04 00:31:27;;;;;;;5.73;3.40;;;;;;;;;;5044623;28;20491;-58
2023/11/04 00:33:53;;;;;;;4.50;3.33;;;;;;;;;;5044604;28;20275;-57
2023/11/04 00:36:18;;;;;;;5.00;3.33;;;;;;;;;;5044738;28;20108;-57
2023/11/04 00:38:44;;;;;;;5.20;3.17;;;;;;;;;;5045024;28;20052;-57
2023/11/04 00:41:09;;;;;;;4.20;2.90;;;;;;;;;;5043011;28;20341;-57
2023/11/04 00:43:36;;;;;;;5.25;3.13;;;;;;;;;;5045011;28;20132;-57
2023/11/04 00:46:01;;;;;;;4.78;2.75;;;;;;;;;;5043586;28;20429;-58
2023/11/04 00:48:26;;;;;;;5.20;3.10;;;;;;;;;;5041796;28;20041;-58
2023/11/04 00:50:52;;;;;;;4.55;2.53;;;;;;;;;;5040346;28;20045;-57
2023/11/04 00:53:17;;;;;;;4.65;3.25;;;;;;;;;;5044940;28;20037;-58
2023/11/04 00:55:42;;;;;;;3.87;2.80;;;;;;;;;;5044042;28;20127;-57
2023/11/04 00:58:07;;;;;;;4.30;2.75;;;;;;;;;;5044691;28;20279;-57
2023/11/04 01:00:34;;;;;;;3.80;2.67;;;;;;;;;;5044068;28;20469;-58
2023/11/04 01:03:00;;;;;;;3.72;2.40;;;;;;;;;;5044637;28;20106;-56
2023/11/04 01:05:25;;;;;;;4.60;3.08;;;;;;;;;;5043721;28;20460;-58
2023/11/04 01:07:51;;;;;;;3.95;2.50;;;;;;;;;;5043068;28;20047;-56
2023/11/04 01:10:17;;;;;;;4.65;2.72;;;;;;;;;;5043288;28;20040;-56
2023/11/04 01:12:42;;;;;;;3.72;2.88;;;;;;;;;;5044539;28;20476;-56
2023/11/04 01:15:08;;;;;;;4.65;3.13;;;;;;;;;;5043772;28;20047;-58
2023/11/04 01:17:33;;;;;;;3.92;2.60;;;;;;;;;;5044462;28;20029;-55
2023/11/04 01:19:58;;;;;;;3.67;2.70;;;;;;;;;;5043460;28;20493;-56
2023/11/04 01:22:24;;;;;;;3.63;2.50;;;;;;;;;;5042394;28;20045;-57
2023/11/04 01:24:49;;;;;;;4.43;2.90;;;;;;;;;;5043144;28;20102;-57
2023/11/04 01:27:14;;;;;;;4.13;2.37;;;;;;;;;;5043821;28;20037;-56
2023/11/04 01:29:39;;;;;;;4.90;3.05;;;;;;;;;;5043430;28;20723;-57
2023/11/04 01:32:05;;;;;;;5.07;2.75;;;;;;;;;;5037806;28;20041;-61
2023/11/04 01:34:31;;;;;;;4.07;2.45;;;;;;;;;;5043060;28;20405;-58
2023/11/04 01:36:56;;;;;;;4.00;2.65;;;;;;;;;;5025804;28;20583;-58
2023/11/04 01:39:21;;;;;;;4.20;2.78;;;;;;;;;;5043031;28;20037;-57
2023/11/04 01:41:47;;;;;;;4.10;2.47;;;;;;;;;;5024181;28;20494;-59
2023/11/04 01:44:12;;;;;;;3.67;2.42;;;;;;;;;;5043406;28;20130;-58
2023/11/04 01:46:37;;;;;;;4.07;2.53;;;;;;;;;;5043266;28;20045;-58
2023/11/04 01:49:03;;;;;;;3.67;2.35;;;;;;;;;;5021731;28;20098;-59
2023/11/04 01:51:28;;;;;;;4.57;2.50;;;;;;;;;;5040112;28;20033;-58
2023/11/04 01:53:53;;;;;;;4.03;2.45;;;;;;;;;;5043849;28;20033;-57
2023/11/04 01:56:20;;;;;;;4.03;2.80;;;;;;;;;;5043336;28;20068;-57
2023/11/04 01:58:45;;;;;;;3.35;2.40;;;;;;;;;;5048314;28;20041;-57
2023/11/04 02:01:11;;;;;;;3.25;2.40;;;;;;;;;;5043434;28;20033;-57
2023/11/04 02:03:36;;;;;;;3.45;2.20;;;;;;;;;;5046383;28;20053;-59
2023/11/04 02:06:01;;;;;;;3.78;2.50;;;;;;;;;;5025632;28;20504;-58
2023/11/04 02:08:27;;;;;;;3.85;2.70;;;;;;;;;;5045286;28;20442;-57
2023/11/04 02:10:52;;;;;;;3.65;2.33;;;;;;;;;;5028227;28;20036;-56
2023/11/04 02:13:17;;;;;;;3.35;2.33;;;;;;;;;;5047810;28;20048;-56
2023/11/04 02:15:42;;;;;;;3.33;2.33;;;;;;;;;;5046696;28;20060;-55
2023/11/04 02:18:08;;;;;;;3.10;2.20;;;;;;;;;;5046664;28;20028;-56
2023/11/04 02:20:34;;;;;;;3.50;2.58;;;;;;;;;;5046867;28;20087;-55
2023/11/04 02:22:59;;;;;;;3.85;2.40;;;;;;;;;;5046308;28;20140;-56
2023/11/04 02:25:32;;;;;;;3.50;2.40;;;;;;;;;;5046049;28;20465;-56
2023/11/04 02:27:57;;;;;;;3.95;1.92;;;;;;;;;;5047244;28;20063;-56
2023/11/04 02:30:22;;;;;;;3.38;2.17;;;;;;;;;;5046619;28;20033;-57
2023/11/04 02:32:49;;;;;;;3.78;2.30;;;;;;;;;;5046425;28;20455;-56
2023/11/04 02:35:15;;;;;;;3.97;2.50;;;;;;;;;;5044867;28;20086;-56
2023/11/04 02:37:40;;;;;;;4.53;2.35;;;;;;;;;;5046937;28;20044;-57
2023/11/04 02:40:06;;;;;;;4.15;2.15;;;;;;;;;;5046321;28;20061;-56
2023/11/04 02:42:31;;;;;;;3.13;2.08;;;;;;;;;;5028111;28;20525;-58
2023/11/04 02:44:57;;;;;;;3.15;2.10;;;;;;;;;;5046287;28;20045;-58
2023/11/04 02:47:22;;;;;;;4.18;1.95;;;;;;;;;;5047329;28;20036;-56
2023/11/04 02:49:47;;;;;;;3.20;2.03;;;;;;;;;;5042110;28;20190;-56
2023/11/04 02:52:13;;;;;;;4.78;2.45;;;;;;;;;;5046167;28;20029;-58
2023/11/04 02:54:39;;;;;;;3.50;2.00;;;;;;;;;;5045320;28;20476;-56
2023/11/04 02:57:04;;;;;;;3.38;2.03;;;;;;;;;;5046925;28;20037;-58
2023/11/04 02:59:30;;;;;;;3.33;2.03;;;;;;;;;;5046583;28;20125;-56
2023/11/04 03:01:56;;;;;;;4.25;2.47;;;;;;;;;;5046138;28;20318;-58
2023/11/04 03:04:21;;;;;;;2.83;2.03;;;;;;;;;;5046313;28;20294;-56
2023/11/04 03:06:47;;;;;;;2.78;1.85;;;;;;;;;;5046668;28;20041;-57
2023/11/04 03:09:12;;;;;;;3.00;2.10;;;;;;;;;;5046827;28;20124;-58
2023/11/04 03:11:37;;;;;;;2.22;1.60;;;;;;;;;;5043394;28;20355;-58
2023/11/04 03:14:02;;;;;;;3.60;1.90;;;;;;;;;;5046123;28;20029;-58
2023/11/04 03:16:29;;;;;;;2.80;2.10;;;;;;;;;;5046406;28;20032;-58
2023/11/04 03:18:54;;;;;;;3.33;1.92;;;;;;;;;;5018284;28;20368;-57
2023/11/04 03:21:20;;;;;;;2.15;1.60;;;;;;;;;;5024443;28;20076;-56
2023/11/04 03:23:45;;;;;;;3.03;1.65;;;;;;;;;;5045335;28;20045;-58
2023/11/04 03:26:12;;;;;;;4.00;1.98;;;;;;;;;;5045934;28;20112;-57
2023/11/04 03:28:38;;;;;;;3.05;1.92;;;;;;;;;;5026950;28;20037;-59
2023/11/04 03:31:03;;;;;;;3.03;1.90;;;;;;;;;;5045064;28;20103;-58
2023/11/04 03:33:29;;;;;;;2.70;1.90;;;;;;;;;;5045698;28;20065;-56
2023/11/04 03:35:54;;;;;;;3.15;2.00;;;;;;;;;;5045654;28;20033;-58
2023/11/04 03:38:19;;;;;;;3.27;1.70;;;;;;;;;;5045200;28;20486;-57
2023/11/04 03:40:44;;;;;;;2.93;1.70;;;;;;;;;;5044624;28;20283;-57
2023/11/04 03:43:10;;;;;;;3.95;1.90;;;;;;;;;;5045126;28;20398;-57
2023/11/04 03:45:35;;;;;;;2.80;2.10;;;;;;;;;;5028144;28;20037;-58
2023/11/04 03:48:00;;;;;;;3.22;1.73;;;;;;;;;;5044415;28;20033;-59
2023/11/04 03:50:26;;;;;;;3.03;1.85;;;;;;;;;;5031143;28;20116;-55
2023/11/04 03:52:51;;;;;;;3.38;1.88;;;;;;;;;;5045191;28;20579;-58
2023/11/04 03:55:16;;;;;;;4.40;2.10;;;;;;;;;;5045305;28;20044;-56
2023/11/04 03:57:41;;;;;;;3.53;1.53;;;;;;;;;;5044861;28;20041;-56
2023/11/04 04:00:07;;;;;;;3.15;1.80;;;;;;;;;;5044916;28;20727;-57
2023/11/04 04:02:33;;;;;;;2.45;1.80;;;;;;;;;;5041439;28;20076;-57
2023/11/04 04:04:59;;;;;;;2.80;1.88;;;;;;;;;;5044555;28;20053;-57
2023/11/04 04:07:24;;;;;;;2.53;1.83;;;;;;;;;;5044360;28;20028;-58
2023/11/04 04:09:49;;;;;;;2.72;1.80;;;;;;;;;;5044031;28;20117;-57
2023/11/04 04:12:14;;;;;;;2.50;1.67;;;;;;;;;;5044940;28;20017;-58
2023/11/04 04:14:44;;;;;;;2.40;1.52;;;;;;;;;;5044513;28;20769;-56
2023/11/04 04:17:09;;;;;;;2.75;1.70;;;;;;;;;;5042358;28;20396;-56
2023/11/04 04:19:36;;;;;;;2.40;1.70;;;;;;;;;;5030859;28;20076;-58
2023/11/04 04:22:02;;;;;;;3.38;1.52;;;;;;;;;;5044032;28;20477;-56
2023/11/04 04:24:27;;;;;;;2.53;1.60;;;;;;;;;;5044370;28;20515;-57
2023/11/04 04:26:52;;;;;;;2.27;1.47;;;;;;;;;;5044065;28;20025;-58
2023/11/04 04:29:17;;;;;;;2.53;1.60;;;;;;;;;;5044625;28;20344;-58
2023/11/04 04:31:43;;;;;;;2.50;1.70;;;;;;;;;;5042961;28;20275;-59
2023/11/04 04:34:08;;;;;;;1.97;1.40;;;;;;;;;;5039827;28;20181;-58
2023/11/04 04:36:33;;;;;;;2.03;1.40;;;;;;;;;;5041996;28;20271;-58
2023/11/04 04:38:58;;;;;;;2.45;1.38;;;;;;;;;;5026850;28;20459;-58
2023/11/04 04:41:25;;;;;;;2.42;1.52;;;;;;;;;;5044963;28;20100;-59
2023/11/04 04:43:51;;;;;;;3.38;1.77;;;;;;;;;;5043265;28;20064;-55
2023/11/04 04:46:16;;;;;;;2.93;1.50;;;;;;;;;;5043682;28;20102;-57
2023/11/04 04:48:41;;;;;;;2.75;1.65;;;;;;;;;;5041179;28;20255;-55
2023/11/04 04:51:07;;;;;;;2.40;1.45;;;;;;;;;;5043313;28;20106;-57
2023/11/04 04:53:32;;;;;;;3.22;1.75;;;;;;;;;;5042201;28;20426;-57
2023/11/04 04:55:58;;;;;;;2.92;1.67;;;;;;;;;;5042094;28;20024;-56
2023/11/04 04:58:23;;;;;;;2.58;1.60;;;;;;;;;;5043116;28;20104;-57
2023/11/04 05:00:48;;;;;;;2.10;1.30;;;;;;;;;;5043444;28;20036;-56
2023/11/04 05:03:15;;;;;;;3.13;1.48;;;;;;;;;;5043080;28;20055;-57
2023/11/04 05:05:40;;;;;;;2.20;1.30;;;;;;;;;;5042214;28;20021;-57
2023/11/04 05:08:06;;;;;;;1.67;1.08;;;;;;;;;;5039867;28;20152;-55
2023/11/04 05:10:31;;;;;;;2.20;1.45;;;;;;;;;;5044481;28;20082;-56
2023/11/04 05:12:57;;;;;;;2.67;1.40;;;;;;;;;;5043133;28;20049;-58
2023/11/04 05:15:22;;;;;;;2.28;1.50;;;;;;;;;;5042309;28;20546;-57
2023/11/04 05:17:48;;;;;;;3.45;1.60;;;;;;;;;;5035638;28;20509;-55
2023/11/04 05:20:14;;;;;;;2.45;1.35;;;;;;;;;;5035153;28;20418;-57
2023/11/04 05:22:39;;;;;;;2.15;1.02;;;;;;;;;;5038306;28;20045;-57
2023/11/04 05:25:05;;;;;;;2.80;1.63;;;;;;;;;;5037213;28;20107;-59
2023/11/04 05:27:31;;;;;;;1.75;1.27;;;;;;;;;;5041308;28;20033;-58
2023/11/04 05:29:56;;;;;;;3.00;1.40;;;;;;;;;;5040949;28;20047;-58
2023/11/04 05:32:21;;;;;;;1.83;1.00;;;;;;;;;;5021611;28;20841;-59
2023/11/04 05:34:46;;;;;;;3.38;1.20;;;;;;;;;;5038482;28;20034;-58
2023/11/04 05:37:12;;;;;;;2.70;1.17;;;;;;;;;;5033082;28;20098;-57
2023/11/04 05:39:38;;;;;;;2.13;1.30;;;;;;;;;;5020693;28;20045;-57
2023/11/04 05:42:05;;;;;;;3.50;1.40;;;;;;;;;;5022727;28;20057;-57
2023/11/04 05:44:30;;;;;;;2.08;1.10;;;;;;;;;;5021273;28;20049;-56
2023/11/04 05:46:56;;;;;;;2.40;1.25;;;;;;;;;;5015698;28;20046;-56
2023/11/04 05:49:21;;;;;;;2.38;1.30;;;;;;;;;;5013493;28;20651;-58
2023/11/04 05:51:46;;;;;;;3.35;1.50;;;;;;;;;;5023297;28;20046;-57
2023/11/04 05:54:12;;;;;;;2.60;1.00;;;;;;;;;;5023279;28;20083;-57
2023/11/04 05:56:37;;;;;;;2.25;1.17;;;;;;;;;;5016497;28;20783;-57
2023/11/04 05:59:03;;;;;;;2.03;1.00;;;;;;;;;;5018574;28;20959;-56
2023/11/04 06:01:28;;;;;;;1.63;1.20;;;;;;;;;;5022631;28;20417;-57
2023/11/04 06:03:53;;;;;;;2.47;1.30;;;;;;;;;;5020811;28;20045;-56
2023/11/04 06:06:20;;;;;;;2.10;1.20;;;;;;;;;;5022824;28;20045;-57
2023/11/04 06:08:45;;;;;;;1.90;1.15;;;;;;;;;;5023581;28;20112;-57
2023/11/04 06:11:10;;;;;;;9.88;1.50;;;;;;;;;;5020481;28;20053;-58
2023/11/04 06:13:35;;;;;;;1.20;0.40;;;;;;;;;;5016422;28;20111;-57
2023/11/04 06:16:01;;;;;;;5.30;1.40;;;;;;;;;;5020341;28;20422;-59
2023/11/04 06:18:26;;;;;;;5.03;1.23;;;;;;;;;;5015101;28;20293;-58
2023/11/04 06:20:51;;;;;;;3.20;1.00;;;;;;;;;;5022139;28;20037;-56
2023/11/04 06:23:17;;;;;;;3.80;1.08;;;;;;;;;;5017932;28;20307;-58
2023/11/04 06:25:42;;;;;;;4.45;0.85;;;;;;;;;;5023148;28;20060;-58
2023/11/04 06:28:07;;;;;;;2.03;1.17;;;;;;;;;;5019224;28;20049;-56
2023/11/04 06:30:33;;;;;;;2.85;0.93;;;;;;;;;;5023169;28;20136;-57
2023/11/04 06:32:59;;;;;;;2.92;1.05;;;;;;;;;;5015732;28;20037;-57
2023/11/04 06:35:25;;;;;;;2.95;1.00;;;;;;;;;;5030504;28;20040;-57
2023/11/04 06:37:51;;;;;;;1.70;0.80;;;;;;;;;;5016894;28;20100;-57
2023/11/04 06:40:16;;;;;;;1.98;0.88;;;;;;;;;;5029287;28;20112;-64
2023/11/04 06:42:42;;;;;;;2.85;1.10;;;;;;;;;;5030231;28;20136;-54
2023/11/04 06:45:07;;;;;;;2.43;0.90;;;;;;;;;;5039673;28;20029;-58
2023/11/04 06:47:32;;;;;;;2.50;0.90;;;;;;;;;;5028463;28;20276;-56
2023/11/04 06:49:58;;;;;;;2.70;0.88;;;;;;;;;;5016549;28;20021;-55
2023/11/04 06:52:23;;;;;;;2.15;0.70;;;;;;;;;;5041997;28;20425;-54
2023/11/04 06:54:49;;;;;;;1.92;1.20;;;;;;;;;;5035492;28;20050;-54
2023/11/04 06:57:14;;;;;;;3.88;0.80;;;;;;;;;;5020585;28;20034;-56
2023/11/04 06:59:42;;;;;;;3.03;1.00;;;;;;;;;;5021193;28;20036;-55
2023/11/04 07:02:07;;;;;;;1.95;0.75;;;;;;;;;;5029092;28;20049;-55
2023/11/04 07:04:32;;;;;;;2.30;0.70;;;;;;;;;;5040027;28;20592;-56
2023/11/04 07:06:58;;;;;;;3.28;0.93;;;;;;;;;;5033422;28;20441;-55
2023/11/04 07:09:23;;;;;;;2.38;0.90;;;;;;;;;;5026923;28;20347;-55
2023/11/04 07:11:48;;;;;;;1.77;0.70;;;;;;;;;;5036588;28;20036;-55
2023/11/04 07:14:16;;;;;;;1.60;0.80;;;;;;;;;;5038616;28;20288;-54
2023/11/04 07:16:41;;;;;;;3.15;0.82;;;;;;;;;;5032678;28;20056;-56
2023/11/04 07:19:06;;;;;;;3.35;0.93;;;;;;;;;;5033488;28;20531;-55
2023/11/04 07:21:32;;;;;;;3.05;0.70;;;;;;;;;;5032253;28;20056;-54
2023/11/04 07:23:57;;;;;;;2.45;0.88;;;;;;;;;;5030764;28;20050;-57
2023/11/04 07:26:22;;;;;;;1.50;0.70;;;;;;;;;;5021191;28;20046;-57
2023/11/04 07:28:49;;;;;;;2.08;1.05;;;;;;;;;;5024625;28;20327;-57
2023/11/04 07:31:14;;;;;;;2.47;0.80;;;;;;;;;;5031364;28;20028;-55
2023/11/04 07:33:40;;;;;;;2.55;0.70;;;;;;;;;;5047670;28;20086;-56
2023/11/04 07:36:05;;;;;;;2.75;0.75;;;;;;;;;;5043983;28;20116;-55
2023/11/04 07:38:32;;;;;;;2.95;0.70;;;;;;;;;;5042010;28;20034;-55
2023/11/04 07:40:57;;;;;;;2.13;0.80;;;;;;;;;;5044665;28;20033;-56
2023/11/04 07:43:22;;;;;;;3.95;0.80;;;;;;;;;;5041736;28;20045;-54
2023/11/04 07:45:48;;;;;;;1.63;0.75;;;;;;;;;;5043834;28;20086;-54
2023/11/04 07:48:14;;;;;;;2.80;0.80;;;;;;;;;;5033448;28;20120;-56
2023/11/04 07:50:39;;;;;;;2.50;0.80;;;;;;;;;;5033370;28;20053;-56
2023/11/04 07:53:04;;;;;;;2.40;0.90;;;;;;;;;;5041783;28;20052;-55
2023/11/04 07:55:30;;;;;;;1.75;0.70;;;;;;;;;;5047160;28;20045;-55
2023/11/04 07:57:55;;;;;;;1.52;0.80;;;;;;;;;;5043696;28;20037;-55
2023/11/04 08:00:20;;;;;;;2.13;0.70;;;;;;;;;;5044767;28;20041;-56
2023/11/04 08:02:47;;;;;;;1.50;0.70;;;;;;;;;;5043678;28;20045;-55
2023/11/04 08:05:14;;;;;;;1.98;0.60;;;;;;;;;;5041112;28;20378;-55
2023/11/04 08:07:39;;;;;;;2.17;0.70;;;;;;;;;;5027909;28;20048;-55
2023/11/04 08:10:06;;;;;;;2.53;0.73;;;;;;;;;;5041578;28;20029;-54
2023/11/04 08:12:32;;;;;;;1.67;0.70;;;;;;;;;;5043623;28;20124;-54
2023/11/04 08:14:57;;;;;;;2.45;0.60;;;;;;;;;;5039157;28;20148;-54
2023/11/04 08:17:22;;;;;;;2.97;0.80;;;;;;;;;;5036175;28;20558;-54
2023/11/04 08:19:48;;;;;;;2.63;0.80;;;;;;;;;;5038210;28;20096;-55
2023/11/04 08:22:13;;;;;;;1.75;0.70;;;;;;;;;;5039622;28;20032;-54
2023/11/04 08:24:38;;;;;;;3.00;0.88;;;;;;;;;;5040316;28;20045;-54
2023/11/04 08:27:04;;;;;;;1.90;0.60;;;;;;;;;;5043915;28;20390;-55
2023/11/04 08:29:32;;;;;;;2.55;0.70;;;;;;;;;;5023251;28;20060;-55
2023/11/04 08:31:58;;;;;;;2.05;0.70;;;;;;;;;;5035802;28;20162;-55
2023/11/04 08:34:23;;;;;;;1.35;0.82;;;;;;;;;;5041914;28;20102;-54
2023/11/04 08:36:49;;;;;;;0.90;0.55;;;;;;;;;;5039511;28;20982;-54
2023/11/04 08:39:14;;;;;;;2.13;0.90;;;;;;;;;;5042124;28;20040;-55
2023/11/04 08:41:40;;;;;;;1.48;0.77;;;;;;;;;;5038804;28;20051;-56
2023/11/04 08:44:05;;;;;;;3.38;0.70;;;;;;;;;;5041518;28;20522;-56
2023/11/04 08:46:30;;;;;;;2.03;0.88;;;;;;;;;;5038133;28;21155;-54
2023/11/04 08:48:56;;;;;;;0.90;0.50;;;;;;;;;;5035052;28;20897;-54
2023/11/04 08:51:21;;;;;;;1.58;0.70;;;;;;;;;;5038850;28;20283;-57
2023/11/04 08:53:46;;;;;;;1.60;0.60;;;;;;;;;;5037253;28;20163;-56
2023/11/04 08:56:12;;;;;;;2.15;0.63;;;;;;;;;;5039924;28;20036;-56
2023/11/04 08:58:37;;;;;;;1.75;0.75;;;;;;;;;;5027342;28;20488;-57
2023/11/04 09:01:02;;;;;;;1.52;0.52;;;;;;;;;;5032102;28;20037;-56
2023/11/04 09:03:28;;;;;;;2.55;0.82;;;;;;;;;;5042532;28;20110;-56
2023/11/04 09:05:53;;;;;;;2.30;0.63;;;;;;;;;;5035484;28;20040;-56
2023/11/04 09:08:19;;;;;;;2.50;0.80;;;;;;;;;;5043456;28;20291;-53
2023/11/04 09:10:44;;;;;;;2.17;0.75;;;;;;;;;;5033227;28;20044;-55
2023/11/04 09:13:10;;;;;;;2.92;0.80;;;;;;;;;;5039098;28;20033;-56
2023/11/04 09:15:35;;;;;;;2.80;0.95;;;;;;;;;;5041792;28;20415;-56
2023/11/04 09:18:02;;;;;;;2.15;0.80;;;;;;;;;;5038525;28;20144;-56
2023/11/04 09:20:29;;;;;;;3.05;0.80;;;;;;;;;;5027304;28;20438;-56
2023/11/04 09:22:54;;;;;;;1.42;0.80;;;;;;;;;;5031480;28;20553;-56
2023/11/04 09:25:20;;;;;;;1.50;0.60;;;;;;;;;;5040005;28;20051;-56
2023/11/04 09:27:46;;;;;;;1.75;0.70;;;;;;;;;;5037543;28;20045;-56
2023/11/04 09:30:11;;;;;;;2.75;0.70;;;;;;;;;;5037001;28;20110;-56
2023/11/04 09:32:36;;;;;;;2.80;0.80;;;;;;;;;;5041577;28;20441;-56
2023/11/04 09:35:02;;;;;;;1.70;0.70;;;;;;;;;;5024517;28;20120;-54
2023/11/04 09:37:28;;;;;;;2.60;0.90;;;;;;;;;;5039943;28;20303;-54
2023/11/04 09:39:53;;;;;;;1.98;0.80;;;;;;;;;;5032914;28;20068;-54
2023/11/04 09:42:18;;;;;;;1.75;0.75;;;;;;;;;;5039200;28;20524;-54
2023/11/04 09:44:44;;;;;;;1.60;0.90;;;;;;;;;;5041783;28;20118;-55
2023/11/04 09:47:09;;;;;;;2.33;1.00;;;;;;;;;;5020162;28;20838;-55
2023/11/04 09:49:35;;;;;;;3.03;0.80;;;;;;;;;;5035677;28;20052;-54
2023/11/04 09:52:00;;;;;;;2.67;0.98;;;;;;;;;;5042826;28;20033;-56
2023/11/04 09:54:25;;;;;;;2.08;0.73;;;;;;;;;;5031640;28;20597;-55
2023/11/04 09:56:51;;;;;;;1.98;0.80;;;;;;;;;;5034573;28;20134;-55
2023/11/04 09:59:16;;;;;;;3.42;1.00;;;;;;;;;;5035326;28;20391;-54
2023/11/04 10:01:42;;;;;;;2.80;0.90;;;;;;;;;;5038757;28;20107;-56
2023/11/04 10:04:08;;;;;;;2.60;0.70;;;;;;;;;;5021069;28;20091;-55
2023/11/04 10:06:33;;;;;;;2.05;0.93;;;;;;;;;;5037790;28;20129;-55
2023/11/04 10:09:00;;;;;;;1.50;0.75;;;;;;;;;;5029558;28;20087;-55
2023/11/04 10:11:26;;;;;;;2.53;0.80;;;;;;;;;;5034648;28;20033;-56
2023/11/04 10:13:51;;;;;;;3.53;0.85;;;;;;;;;;5038458;28;20037;-56
2023/11/04 10:16:18;;;;;;;2.47;1.00;;;;;;;;;;5038863;28;20396;-57
2023/11/04 10:18:43;;;;;;;1.50;0.60;;;;;;;;;;5018832;28;20037;-54
2023/11/04 10:21:09;;;;;;;3.38;0.90;;;;;;;;;;5043219;28;20035;-55
2023/11/04 10:23:34;;;;;;;2.15;0.57;;;;;;;;;;5035167;28;20132;-56
2023/11/04 10:26:03;;;;;;;1.25;0.60;;;;;;;;;;5034694;28;20040;-55
2023/11/04 10:28:29;;;;;;;2.88;0.70;;;;;;;;;;5017141;28;20045;-55
2023/11/04 10:30:56;;;;;;;2.88;0.90;;;;;;;;;;5026728;28;20033;-55
2023/11/04 10:33:22;;;;;;;2.35;0.90;;;;;;;;;;5019061;28;20037;-55
2023/11/04 10:35:47;;;;;;;2.08;1.00;;;;;;;;;;5017983;28;20506;-57
2023/11/04 10:38:12;;;;;;;1.45;0.60;;;;;;;;;;5020815;28;20530;-56
2023/11/04 10:40:38;;;;;;;1.90;0.70;;;;;;;;;;5022826;28;20038;-56
2023/11/04 10:43:10;;;;;;;3.85;0.90;;;;;;;;;;5019174;28;20060;-55
2023/11/04 10:45:36;;;;;;;2.15;0.70;;;;;;;;;;5018890;28;20072;-58
2023/11/04 10:48:05;;;;;;;2.63;0.98;;;;;;;;;;5022456;28;20045;-57
2023/11/04 10:50:31;;;;;;;2.50;0.70;;;;;;;;;;5016564;28;20037;-56
2023/11/04 10:53:09;;;;;;;2.83;0.90;;;;;;;;;;5019518;28;20060;-57
2023/11/04 10:55:40;;;;;;;1.77;0.70;;;;;;;;;;5022011;28;20030;-56
2023/11/04 10:58:10;;;;;;;2.97;0.90;;;;;;;;;;5020921;28;20041;-55
2023/11/04 11:00:36;;;;;;;2.60;0.70;;;;;;;;;;5018009;28;20478;-54
2023/11/04 11:03:01;;;;;;;2.10;0.70;;;;;;;;;;5013323;28;20057;-55
2023/11/04 11:05:26;;;;;;;2.25;0.80;;;;;;;;;;5022348;28;20075;-55
2023/11/04 11:07:52;;;;;;;2.40;0.90;;;;;;;;;;5038689;28;20127;-56
2023/11/04 11:10:20;;;;;;;3.25;0.80;;;;;;;;;;5014766;28;20280;-58
2023/11/04 11:12:49;;;;;;;2.95;0.93;;;;;;;;;;5024669;28;20489;-56
2023/11/04 11:15:14;;;;;;;1.65;0.73;;;;;;;;;;5024578;28;20521;-57
2023/11/04 11:17:42;;;;;;;2.35;0.77;;;;;;;;;;5022051;28;20026;-57
2023/11/04 11:20:27;;;;;;;1.60;0.70;;;;;;;;;;5021852;28;20509;-57
2023/11/04 11:22:58;;;;;;;1.75;0.80;;;;;;;;;;5022439;28;20050;-56
2023/11/04 11:25:33;;;;;;;1.95;0.98;;;;;;;;;;5017042;28;20417;-60
2023/11/04 11:27:59;;;;;;;1.55;0.70;;;;;;;;;;5024878;28;20052;-56
2023/11/04 11:30:42;;;;;;;1.48;0.73;;;;;;;;;;5022980;28;20406;-58
2023/11/04 11:33:08;;;;;;;1.33;0.70;;;;;;;;;;5013793;28;20049;-56
2023/11/04 11:35:57;;;;;;;1.95;0.75;;;;;;;;;;5033521;28;20030;-58
2023/11/04 11:38:23;;;;;;;2.05;0.88;;;;;;;;;;5021877;28;20038;-58
2023/11/04 11:40:48;;;;;;;2.50;0.80;;;;;;;;;;5024236;28;20045;-56
2023/11/04 11:43:13;;;;;;;2.47;0.90;;;;;;;;;;5022915;28;20053;-58
2023/11/04 11:45:39;;;;;;;2.53;0.70;;;;;;;;;;5027530;28;20037;-55
2023/11/04 11:48:05;;;;;;;1.30;0.70;;;;;;;;;;5015280;28;20038;-57
2023/11/04 11:50:30;;;;;;;1.70;0.73;;;;;;;;;;5018606;28;20033;-54
2023/11/04 11:52:55;;;;;;;2.17;0.80;;;;;;;;;;5023520;28;20095;-56
2023/11/04 11:55:21;;;;;;;3.20;1.00;;;;;;;;;;5019126;28;20086;-57
2023/11/04 11:57:46;;;;;;;3.10;1.00;;;;;;;;;;5023160;28;20291;-57
2023/11/04 12:00:12;;;;;;;1.92;0.80;;;;;;;;;;5014034;28;20473;-56
2023/11/04 12:02:37;;;;;;;1.92;0.85;;;;;;;;;;5020207;28;20052;-55
2023/11/04 12:05:03;;;;;;;2.42;1.02;;;;;;;;;;5014233;28;20038;-55
2023/11/04 12:07:28;;;;;;;1.52;0.80;;;;;;;;;;5023962;28;20045;-55
2023/11/04 12:09:54;;;;;;;2.10;0.80;;;;;;;;;;5004334;28;20116;-55
2023/11/04 12:12:19;;;;;;;1.93;0.80;;;;;;;;;;5015117;28;20044;-57
2023/11/04 12:14:44;;;;;;;2.60;0.87;;;;;;;;;;5006617;28;20323;-56
2023/11/04 12:17:10;;;;;;;2.43;0.60;;;;;;;;;;5002894;28;20763;-55
2023/11/04 12:19:36;;;;;;;1.75;0.70;;;;;;;;;;5016472;28;20359;-56
2023/11/04 12:22:02;;;;;;;3.17;0.90;;;;;;;;;;5017473;28;20573;-56
2023/11/04 12:24:27;;;;;;;1.38;0.60;;;;;;;;;;5019608;28;20497;-56
2023/11/04 12:26:53;;;;;;;2.23;0.80;;;;;;;;;;5016560;28;20029;-55
2023/11/04 12:29:18;;;;;;;1.55;0.75;;;;;;;;;;5009732;28;20368;-56
2023/11/04 12:31:44;;;;;;;1.15;0.65;;;;;;;;;;5015159;28;20045;-56
2023/11/04 12:34:10;;;;;;;1.40;0.70;;;;;;;;;;5036287;28;20088;-56
2023/11/04 12:36:36;;;;;;;1.88;0.88;;;;;;;;;;5011864;28;20052;-55
2023/11/04 12:39:02;;;;;;;1.48;0.68;;;;;;;;;;5012545;28;20562;-56
2023/11/04 12:41:27;;;;;;;1.13;0.60;;;;;;;;;;5014440;28;20053;-57
2023/11/04 12:43:52;;;;;;;2.45;0.80;;;;;;;;;;5011651;28;20049;-55
2023/11/04 12:46:19;;;;;;;2.23;0.70;;;;;;;;;;5018112;28;20037;-54
2023/11/04 12:48:45;;;;;;;1.45;0.60;;;;;;;;;;5007642;28;20269;-54
2023/11/04 12:51:10;;;;;;;2.40;0.90;;;;;;;;;;5005634;28;20026;-53
2023/11/04 12:53:36;;;;;;;1.83;0.70;;;;;;;;;;5020324;28;21081;-56
2023/11/04 12:56:01;;;;;;;1.85;0.80;;;;;;;;;;5018471;28;20109;-54
2023/11/04 12:58:26;;;;;;;1.30;0.60;;;;;;;;;;5008829;28;20125;-55
2023/11/04 13:00:52;;;;;;;1.52;0.88;;;;;;;;;;5018545;28;20683;-55
2023/11/04 13:03:17;;;;;;;2.22;0.88;;;;;;;;;;5005403;28;20061;-56
2023/11/04 13:05:42;;;;;;;1.98;0.90;;;;;;;;;;5012930;28;20478;-55
2023/11/04 13:08:08;;;;;;;1.58;0.80;;;;;;;;;;5001630;28;20033;-55
2023/11/04 13:10:34;;;;;;;1.70;0.70;;;;;;;;;;5004303;28;20155;-54
2023/11/04 13:13:00;;;;;;;1.52;0.60;;;;;;;;;;5009450;28;21343;-57
2023/11/04 13:15:25;;;;;;;1.70;0.65;;;;;;;;;;5027319;28;20049;-57
2023/11/04 13:17:50;;;;;;;2.00;0.77;;;;;;;;;;5000375;28;20396;-55
2023/11/04 13:20:17;;;;;;;1.27;0.75;;;;;;;;;;5000666;28;21084;-55
2023/11/04 13:22:42;;;;;;;2.17;0.80;;;;;;;;;;5004803;28;20072;-55
2023/11/04 13:25:07;;;;;;;1.15;0.50;;;;;;;;;;5023756;28;20124;-54
2023/11/04 13:27:33;;;;;;;1.58;0.75;;;;;;;;;;5020596;28;20182;-56
2023/11/04 13:29:58;;;;;;;1.25;0.55;;;;;;;;;;5020323;28;20048;-56
2023/11/04 13:32:24;;;;;;;1.13;0.57;;;;;;;;;;5023253;28;20040;-58
2023/11/04 13:34:49;;;;;;;1.90;0.90;;;;;;;;;;5022948;28;20036;-56
2023/11/04 13:37:16;;;;;;;1.77;0.70;;;;;;;;;;5023182;28;20417;-57
2023/11/04 13:39:41;;;;;;;1.25;0.60;;;;;;;;;;5020573;28;20041;-56
2023/11/04 13:42:06;;;;;;;1.30;0.60;;;;;;;;;;5023283;28;20531;-57
2023/11/04 13:44:32;;;;;;;2.42;0.77;;;;;;;;;;5022184;28;20069;-56
2023/11/04 13:46:57;;;;;;;1.38;0.63;;;;;;;;;;5019967;28;20048;-56
2023/11/04 13:49:22;;;;;;;1.40;0.70;;;;;;;;;;5020500;28;20034;-57
2023/11/04 13:51:48;;;;;;;2.27;0.63;;;;;;;;;;5022806;28;20291;-56
2023/11/04 13:54:13;;;;;;;2.03;0.80;;;;;;;;;;5022501;28;20629;-55
2023/11/04 13:56:38;;;;;;;1.73;0.80;;;;;;;;;;5022572;28;20421;-57
2023/11/04 13:59:05;;;;;;;1.52;0.57;;;;;;;;;;5022329;28;20094;-57
2023/11/04 14:01:30;;;;;;;1.67;0.70;;;;;;;;;;5021563;28;20044;-57
2023/11/04 14:03:55;;;;;;;1.17;0.50;;;;;;;;;;5018948;28;20042;-57
2023/11/04 14:06:21;;;;;;;1.13;0.50;;;;;;;;;;5020528;28;20869;-56
2023/11/04 14:08:46;;;;;;;1.63;0.85;;;;;;;;;;5022857;28;20037;-56
2023/11/04 14:11:11;;;;;;;1.00;0.60;;;;;;;;;;5020746;28;20501;-57
2023/11/04 14:13:37;;;;;;;1.58;0.90;;;;;;;;;;5021687;28;20120;-58
2023/11/04 14:16:02;;;;;;;1.95;0.47;;;;;;;;;;5022281;28;20056;-57
2023/11/04 14:18:27;;;;;;;1.45;0.65;;;;;;;;;;5022490;28;20514;-58
2023/11/04 14:20:53;;;;;;;0.90;0.40;;;;;;;;;;5022002;28;20046;-57
2023/11/04 14:23:19;;;;;;;1.73;0.47;;;;;;;;;;5018908;28;20049;-56
2023/11/04 14:25:44;;;;;;;1.02;0.50;;;;;;;;;;5021940;28;20048;-56
2023/11/04 14:28:10;;;;;;;1.20;0.40;;;;;;;;;;5019920;28;20026;-57
2023/11/04 14:30:35;;;;;;;0.98;0.40;;;;;;;;;;5022522;28;20026;-56
2023/11/04 14:33:01;;;;;;;1.70;0.60;;;;;;;;;;5022643;28;20132;-56
2023/11/04 14:35:27;;;;;;;1.98;0.57;;;;;;;;;;5021689;28;20064;-56